sensor_id;sensor_type;location;lat;lon;timestamp;temperature;humidity
26035;DHT22;13809;48.632;11.576;2023-06-01T00:01:59;21.10;20.70
26035;DHT22;13809;48.632;11.576;2023-06-01T00:07:02;21.00;21.20
26035;DHT22;13809;48.632;11.576;2023-06-01T00:12:08;20.90;21.00
26035;DHT22;13809;48.632;11.576;2023-06-01T00:17:13;20.80;21.20
26035;DHT22;13809;48.632;11.576;2023-06-01T00:22:16;20.80;21.60
26035;DHT22;13809;48.632;11.576;2023-06-01T00:27:20;20.70;21.20
26035;DHT22;13809;48.632;11.576;2023-06-01T00:32:25;20.50;21.40
26035;DHT22;13809;48.632;11.576;2023-06-01T00:37:28;20.50;21.80
26035;DHT22;13809;48.632;11.576;2023-06-01T00:42:31;20.40;21.60
26035;DHT22;13809;48.632;11.576;2023-06-01T00:47:39;20.30;21.60
26035;DHT22;13809;48.632;11.576;2023-06-01T00:52:43;20.30;22.50
26035;DHT22;13809;48.632;11.576;2023-06-01T00:57:49;20.20;21.80
26035;DHT22;13809;48.632;11.576;2023-06-01T01:02:57;20.10;22.00
26035;DHT22;13809;48.632;11.576;2023-06-01T01:08:13;20.00;22.70
26035;DHT22;13809;48.632;11.576;2023-06-01T01:13:23;19.90;22.60
26035;DHT22;13809;48.632;11.576;2023-06-01T01:18:35;19.90;22.60
26035;DHT22;13809;48.632;11.576;2023-06-01T01:23:53;19.80;23.00
26035;DHT22;13809;48.632;11.576;2023-06-01T01:29:06;19.70;23.10
26035;DHT22;13809;48.632;11.576;2023-06-01T01:34:12;19.60;23.00
26035;DHT22;13809;48.632;11.576;2023-06-01T01:39:16;19.50;22.50
26035;DHT22;13809;48.632;11.576;2023-06-01T01:44:21;19.50;22.70
26035;DHT22;13809;48.632;11.576;2023-06-01T01:49:28;19.50;23.10
26035;DHT22;13809;48.632;11.576;2023-06-01T01:54:37;19.40;23.40
26035;DHT22;13809;48.632;11.576;2023-06-01T01:59:43;19.30;23.20
26035;DHT22;13809;48.632;11.576;2023-06-01T02:04:46;19.30;23.30
26035;DHT22;13809;48.632;11.576;2023-06-01T02:09:49;19.20;23.00
26035;DHT22;13809;48.632;11.576;2023-06-01T02:14:53;19.10;23.00
26035;DHT22;13809;48.632;11.576;2023-06-01T02:19:57;19.10;23.40
26035;DHT22;13809;48.632;11.576;2023-06-01T02:25:00;19.10;23.20
26035;DHT22;13809;48.632;11.576;2023-06-01T02:30:09;19.00;23.20
26035;DHT22;13809;48.632;11.576;2023-06-01T02:35:12;19.00;23.70
26035;DHT22;13809;48.632;11.576;2023-06-01T02:40:15;18.90;23.30
26035;DHT22;13809;48.632;11.576;2023-06-01T02:45:20;18.90;23.40
26035;DHT22;13809;48.632;11.576;2023-06-01T02:50:23;18.80;23.60
26035;DHT22;13809;48.632;11.576;2023-06-01T02:55:26;18.70;23.40
26035;DHT22;13809;48.632;11.576;2023-06-01T03:00:31;18.70;23.60
26035;DHT22;13809;48.632;11.576;2023-06-01T03:05:36;18.60;23.90
26035;DHT22;13809;48.632;11.576;2023-06-01T03:10:39;18.50;24.30
26035;DHT22;13809;48.632;11.576;2023-06-01T03:15:44;18.50;24.00
26035;DHT22;13809;48.632;11.576;2023-06-01T03:20:47;18.40;24.20
26035;DHT22;13809;48.632;11.576;2023-06-01T03:25:50;18.30;24.20
26035;DHT22;13809;48.632;11.576;2023-06-01T03:30:55;18.20;24.10
26035;DHT22;13809;48.632;11.576;2023-06-01T03:35:58;18.10;24.10
26035;DHT22;13809;48.632;11.576;2023-06-01T03:41:02;18.00;24.00
26035;DHT22;13809;48.632;11.576;2023-06-01T03:46:06;17.90;23.90
26035;DHT22;13809;48.632;11.576;2023-06-01T03:51:10;17.80;24.40
26035;DHT22;13809;48.632;11.576;2023-06-01T03:56:13;17.80;24.30
26035;DHT22;13809;48.632;11.576;2023-06-01T04:01:18;17.70;24.40
26035;DHT22;13809;48.632;11.576;2023-06-01T04:06:28;17.70;24.90
26035;DHT22;13809;48.632;11.576;2023-06-01T04:11:31;17.60;25.50
26035;DHT22;13809;48.632;11.576;2023-06-01T04:16:35;17.60;24.70
26035;DHT22;13809;48.632;11.576;2023-06-01T04:21:39;17.60;25.20
26035;DHT22;13809;48.632;11.576;2023-06-01T04:26:43;17.50;24.90
26035;DHT22;13809;48.632;11.576;2023-06-01T04:31:49;17.50;25.30
26035;DHT22;13809;48.632;11.576;2023-06-01T04:36:52;17.50;25.60
26035;DHT22;13809;48.632;11.576;2023-06-01T04:41:55;17.50;25.30
26035;DHT22;13809;48.632;11.576;2023-06-01T04:47:07;17.50;25.30
26035;DHT22;13809;48.632;11.576;2023-06-01T04:52:11;17.50;26.60
26035;DHT22;13809;48.632;11.576;2023-06-01T04:57:14;17.50;25.60
26035;DHT22;13809;48.632;11.576;2023-06-01T05:02:19;17.50;25.60
26035;DHT22;13809;48.632;11.576;2023-06-01T05:07:23;17.60;26.10
26035;DHT22;13809;48.632;11.576;2023-06-01T05:12:26;17.60;25.90
26035;DHT22;13809;48.632;11.576;2023-06-01T05:17:31;17.60;25.80
26035;DHT22;13809;48.632;11.576;2023-06-01T05:22:34;17.80;25.90
26035;DHT22;13809;48.632;11.576;2023-06-01T05:27:37;17.90;25.60
26035;DHT22;13809;48.632;11.576;2023-06-01T05:32:48;18.10;25.80
26035;DHT22;13809;48.632;11.576;2023-06-01T05:37:54;18.20;26.60
26035;DHT22;13809;48.632;11.576;2023-06-01T05:42:57;18.40;26.20
26035;DHT22;13809;48.632;11.576;2023-06-01T05:48:02;18.50;26.20
26035;DHT22;13809;48.632;11.576;2023-06-01T05:53:06;18.70;26.60
26035;DHT22;13809;48.632;11.576;2023-06-01T05:58:09;18.90;26.30
26035;DHT22;13809;48.632;11.576;2023-06-01T06:03:14;19.00;26.40
26035;DHT22;13809;48.632;11.576;2023-06-01T06:08:17;19.20;26.50
26035;DHT22;13809;48.632;11.576;2023-06-01T06:13:21;19.30;26.00
26035;DHT22;13809;48.632;11.576;2023-06-01T06:18:26;19.50;26.00
26035;DHT22;13809;48.632;11.576;2023-06-01T06:23:30;19.70;26.00
26035;DHT22;13809;48.632;11.576;2023-06-01T06:28:34;19.80;25.70
26035;DHT22;13809;48.632;11.576;2023-06-01T06:33:39;20.00;25.90
26035;DHT22;13809;48.632;11.576;2023-06-01T06:38:43;20.20;26.10
26035;DHT22;13809;48.632;11.576;2023-06-01T06:43:46;20.40;26.00
26035;DHT22;13809;48.632;11.576;2023-06-01T06:48:51;20.60;25.70
26035;DHT22;13809;48.632;11.576;2023-06-01T06:53:54;20.80;26.10
26035;DHT22;13809;48.632;11.576;2023-06-01T06:58:57;21.00;26.00
26035;DHT22;13809;48.632;11.576;2023-06-01T07:04:10;21.20;26.10
26035;DHT22;13809;48.632;11.576;2023-06-01T07:09:13;21.40;26.30
26035;DHT22;13809;48.632;11.576;2023-06-01T07:14:16;21.60;26.40
26035;DHT22;13809;48.632;11.576;2023-06-01T07:19:21;21.80;26.30
26035;DHT22;13809;48.632;11.576;2023-06-01T07:24:24;22.00;26.10
26035;DHT22;13809;48.632;11.576;2023-06-01T07:29:28;22.20;26.00
26035;DHT22;13809;48.632;11.576;2023-06-01T07:34:32;22.50;26.10
26035;DHT22;13809;48.632;11.576;2023-06-01T07:39:36;22.60;26.00
26035;DHT22;13809;48.632;11.576;2023-06-01T07:44:41;22.80;25.70
26035;DHT22;13809;48.632;11.576;2023-06-01T07:49:46;23.10;25.50
26035;DHT22;13809;48.632;11.576;2023-06-01T07:54:49;23.30;25.00
26035;DHT22;13809;48.632;11.576;2023-06-01T07:59:53;23.50;25.30
26035;DHT22;13809;48.632;11.576;2023-06-01T08:04:58;23.70;24.90
26035;DHT22;13809;48.632;11.576;2023-06-01T08:10:01;24.00;24.90
26035;DHT22;13809;48.632;11.576;2023-06-01T08:15:05;24.20;24.50
26035;DHT22;13809;48.632;11.576;2023-06-01T08:20:10;24.40;24.30
26035;DHT22;13809;48.632;11.576;2023-06-01T08:25:16;24.70;24.20
26035;DHT22;13809;48.632;11.576;2023-06-01T08:30:20;24.90;24.10
26035;DHT22;13809;48.632;11.576;2023-06-01T08:35:24;25.20;23.80
26035;DHT22;13809;48.632;11.576;2023-06-01T08:40:28;25.40;23.40
26035;DHT22;13809;48.632;11.576;2023-06-01T08:45:33;25.70;23.40
26035;DHT22;13809;48.632;11.576;2023-06-01T08:50:38;25.80;23.20
26035;DHT22;13809;48.632;11.576;2023-06-01T08:55:42;26.00;22.90
26035;DHT22;13809;48.632;11.576;2023-06-01T09:00:47;26.10;22.70
26035;DHT22;13809;48.632;11.576;2023-06-01T09:05:52;26.20;22.20
26035;DHT22;13809;48.632;11.576;2023-06-01T09:10:57;26.40;22.80
26035;DHT22;13809;48.632;11.576;2023-06-01T09:16:01;26.50;22.20
26035;DHT22;13809;48.632;11.576;2023-06-01T09:21:13;26.70;22.60
26035;DHT22;13809;48.632;11.576;2023-06-01T09:26:17;26.90;21.60
26035;DHT22;13809;48.632;11.576;2023-06-01T09:31:38;27.00;21.50
26035;DHT22;13809;48.632;11.576;2023-06-01T09:36:43;27.20;20.70
26035;DHT22;13809;48.632;11.576;2023-06-01T09:41:48;27.30;21.00
26035;DHT22;13809;48.632;11.576;2023-06-01T09:46:53;27.50;20.30
26035;DHT22;13809;48.632;11.576;2023-06-01T09:52:11;27.70;19.90
26035;DHT22;13809;48.632;11.576;2023-06-01T09:57:22;27.70;19.30
26035;DHT22;13809;48.632;11.576;2023-06-01T10:02:26;27.80;19.50
26035;DHT22;13809;48.632;11.576;2023-06-01T10:07:31;27.90;20.00
26035;DHT22;13809;48.632;11.576;2023-06-01T10:12:35;28.00;19.50
26035;DHT22;13809;48.632;11.576;2023-06-01T10:17:39;28.10;20.10
26035;DHT22;13809;48.632;11.576;2023-06-01T10:22:45;28.30;19.90
26035;DHT22;13809;48.632;11.576;2023-06-01T10:27:55;28.40;19.30
26035;DHT22;13809;48.632;11.576;2023-06-01T10:33:00;28.50;18.60
26035;DHT22;13809;48.632;11.576;2023-06-01T10:38:26;28.60;19.20
26035;DHT22;13809;48.632;11.576;2023-06-01T10:43:42;28.60;18.50
26035;DHT22;13809;48.632;11.576;2023-06-01T10:48:52;28.80;18.30
26035;DHT22;13809;48.632;11.576;2023-06-01T10:54:29;28.90;17.60
26035;DHT22;13809;48.632;11.576;2023-06-01T10:59:33;28.90;18.00
26035;DHT22;13809;48.632;11.576;2023-06-01T11:04:38;29.00;18.10
26035;DHT22;13809;48.632;11.576;2023-06-01T11:09:44;29.00;18.00
26035;DHT22;13809;48.632;11.576;2023-06-01T11:15:08;29.00;17.50
26035;DHT22;13809;48.632;11.576;2023-06-01T11:20:16;29.00;17.50
26035;DHT22;13809;48.632;11.576;2023-06-01T11:25:25;29.10;17.10
26035;DHT22;13809;48.632;11.576;2023-06-01T11:30:29;29.20;17.30
26035;DHT22;13809;48.632;11.576;2023-06-01T11:35:33;29.30;17.30
26035;DHT22;13809;48.632;11.576;2023-06-01T11:40:37;29.40;16.90
26035;DHT22;13809;48.632;11.576;2023-06-01T11:45:41;29.40;16.60
26035;DHT22;13809;48.632;11.576;2023-06-01T11:50:46;29.30;16.80
26035;DHT22;13809;48.632;11.576;2023-06-01T11:55:54;29.30;16.70
26035;DHT22;13809;48.632;11.576;2023-06-01T12:00:57;29.40;15.80
26035;DHT22;13809;48.632;11.576;2023-06-01T12:06:01;29.50;16.20
26035;DHT22;13809;48.632;11.576;2023-06-01T12:11:07;29.40;16.90
26035;DHT22;13809;48.632;11.576;2023-06-01T12:16:10;29.40;15.50
26035;DHT22;13809;48.632;11.576;2023-06-01T12:21:23;29.40;15.90
26035;DHT22;13809;48.632;11.576;2023-06-01T12:26:36;29.40;15.70
26035;DHT22;13809;48.632;11.576;2023-06-01T12:31:52;29.50;15.10
26035;DHT22;13809;48.632;11.576;2023-06-01T12:36:56;29.60;15.00
26035;DHT22;13809;48.632;11.576;2023-06-01T12:42:00;29.70;15.90
26035;DHT22;13809;48.632;11.576;2023-06-01T12:47:04;29.80;15.50
26035;DHT22;13809;48.632;11.576;2023-06-01T12:52:07;29.80;15.70
26035;DHT22;13809;48.632;11.576;2023-06-01T12:57:14;29.90;15.80
26035;DHT22;13809;48.632;11.576;2023-06-01T13:02:17;29.90;14.40
26035;DHT22;13809;48.632;11.576;2023-06-01T13:07:21;29.80;14.50
26035;DHT22;13809;48.632;11.576;2023-06-01T13:12:26;29.70;14.60
26035;DHT22;13809;48.632;11.576;2023-06-01T13:17:30;29.60;14.90
26035;DHT22;13809;48.632;11.576;2023-06-01T13:22:34;29.60;15.00
26035;DHT22;13809;48.632;11.576;2023-06-01T13:27:39;29.60;15.00
26035;DHT22;13809;48.632;11.576;2023-06-01T13:32:43;29.60;14.80
26035;DHT22;13809;48.632;11.576;2023-06-01T13:37:46;29.60;15.10
26035;DHT22;13809;48.632;11.576;2023-06-01T13:42:51;29.70;15.10
26035;DHT22;13809;48.632;11.576;2023-06-01T13:47:54;29.80;14.50
26035;DHT22;13809;48.632;11.576;2023-06-01T13:52:58;29.80;14.40
26035;DHT22;13809;48.632;11.576;2023-06-01T13:58:02;29.80;14.20
26035;DHT22;13809;48.632;11.576;2023-06-01T14:03:05;29.80;13.90
26035;DHT22;13809;48.632;11.576;2023-06-01T14:08:09;29.70;14.70
26035;DHT22;13809;48.632;11.576;2023-06-01T14:13:13;29.70;14.70
26035;DHT22;13809;48.632;11.576;2023-06-01T14:18:16;29.80;14.20
26035;DHT22;13809;48.632;11.576;2023-06-01T14:23:20;29.80;14.30
26035;DHT22;13809;48.632;11.576;2023-06-01T14:28:24;29.90;14.00
26035;DHT22;13809;48.632;11.576;2023-06-01T14:33:27;30.00;13.80
26035;DHT22;13809;48.632;11.576;2023-06-01T14:38:31;30.10;13.70
26035;DHT22;13809;48.632;11.576;2023-06-01T14:43:35;30.10;13.30
26035;DHT22;13809;48.632;11.576;2023-06-01T14:48:40;30.20;13.20
26035;DHT22;13809;48.632;11.576;2023-06-01T14:53:44;30.20;13.30
26035;DHT22;13809;48.632;11.576;2023-06-01T14:58:49;30.20;13.30
26035;DHT22;13809;48.632;11.576;2023-06-01T15:03:52;30.30;13.40
26035;DHT22;13809;48.632;11.576;2023-06-01T15:08:57;30.20;13.50
26035;DHT22;13809;48.632;11.576;2023-06-01T15:14:01;30.30;13.40
26035;DHT22;13809;48.632;11.576;2023-06-01T15:19:05;30.30;13.40
26035;DHT22;13809;48.632;11.576;2023-06-01T15:24:08;30.30;13.60
26035;DHT22;13809;48.632;11.576;2023-06-01T15:29:13;30.30;13.50
26035;DHT22;13809;48.632;11.576;2023-06-01T15:34:16;30.40;13.70
26035;DHT22;13809;48.632;11.576;2023-06-01T15:39:21;30.50;13.80
26035;DHT22;13809;48.632;11.576;2023-06-01T15:44:26;30.50;13.70
26035;DHT22;13809;48.632;11.576;2023-06-01T15:49:29;30.50;13.20
26035;DHT22;13809;48.632;11.576;2023-06-01T15:54:33;30.50;13.40
26035;DHT22;13809;48.632;11.576;2023-06-01T15:59:38;30.50;13.40
26035;DHT22;13809;48.632;11.576;2023-06-01T16:04:41;30.40;13.10
26035;DHT22;13809;48.632;11.576;2023-06-01T16:09:44;30.20;13.20
26035;DHT22;13809;48.632;11.576;2023-06-01T16:14:50;30.10;13.50
26035;DHT22;13809;48.632;11.576;2023-06-01T16:19:53;30.00;13.20
26035;DHT22;13809;48.632;11.576;2023-06-01T16:24:56;29.90;13.60
26035;DHT22;13809;48.632;11.576;2023-06-01T16:30:01;29.90;13.40
26035;DHT22;13809;48.632;11.576;2023-06-01T16:35:05;29.90;13.20
26035;DHT22;13809;48.632;11.576;2023-06-01T16:40:08;29.90;13.60
26035;DHT22;13809;48.632;11.576;2023-06-01T16:45:13;29.90;13.40
26035;DHT22;13809;48.632;11.576;2023-06-01T16:50:16;29.90;13.70
26035;DHT22;13809;48.632;11.576;2023-06-01T16:55:20;29.90;13.40
26035;DHT22;13809;48.632;11.576;2023-06-01T17:00:24;29.90;13.70
26035;DHT22;13809;48.632;11.576;2023-06-01T17:05:29;29.90;14.10
26035;DHT22;13809;48.632;11.576;2023-06-01T17:10:34;29.80;13.30
26035;DHT22;13809;48.632;11.576;2023-06-01T17:15:39;29.70;13.10
26035;DHT22;13809;48.632;11.576;2023-06-01T17:20:42;29.60;13.60
26035;DHT22;13809;48.632;11.576;2023-06-01T17:25:45;29.50;13.70
26035;DHT22;13809;48.632;11.576;2023-06-01T17:30:50;29.30;13.70
26035;DHT22;13809;48.632;11.576;2023-06-01T17:35:53;29.20;13.80
26035;DHT22;13809;48.632;11.576;2023-06-01T17:40:58;29.10;13.60
26035;DHT22;13809;48.632;11.576;2023-06-01T17:46:02;29.00;14.00
26035;DHT22;13809;48.632;11.576;2023-06-01T17:51:07;28.90;13.90
26035;DHT22;13809;48.632;11.576;2023-06-01T17:56:10;28.80;14.10
26035;DHT22;13809;48.632;11.576;2023-06-01T18:01:16;28.80;14.10
26035;DHT22;13809;48.632;11.576;2023-06-01T18:06:19;28.70;14.10
26035;DHT22;13809;48.632;11.576;2023-06-01T18:11:22;28.70;14.10
26035;DHT22;13809;48.632;11.576;2023-06-01T18:16:27;28.60;14.10
26035;DHT22;13809;48.632;11.576;2023-06-01T18:21:30;28.50;14.20
26035;DHT22;13809;48.632;11.576;2023-06-01T18:26:34;28.40;14.30
26035;DHT22;13809;48.632;11.576;2023-06-01T18:31:39;28.30;14.30
26035;DHT22;13809;48.632;11.576;2023-06-01T18:36:43;28.20;14.40
26035;DHT22;13809;48.632;11.576;2023-06-01T18:41:47;28.10;14.50
26035;DHT22;13809;48.632;11.576;2023-06-01T18:46:51;27.90;14.70
26035;DHT22;13809;48.632;11.576;2023-06-01T18:51:55;27.80;15.30
26035;DHT22;13809;48.632;11.576;2023-06-01T18:56:58;27.70;15.50
26035;DHT22;13809;48.632;11.576;2023-06-01T19:02:05;27.50;15.60
26035;DHT22;13809;48.632;11.576;2023-06-01T19:07:34;27.40;16.30
26035;DHT22;13809;48.632;11.576;2023-06-01T19:12:38;27.20;16.50
26035;DHT22;13809;48.632;11.576;2023-06-01T19:17:45;27.10;16.40
26035;DHT22;13809;48.632;11.576;2023-06-01T19:22:48;26.90;17.00
26035;DHT22;13809;48.632;11.576;2023-06-01T19:27:51;26.70;17.00
26035;DHT22;13809;48.632;11.576;2023-06-01T19:32:57;26.70;17.20
26035;DHT22;13809;48.632;11.576;2023-06-01T19:38:01;26.50;17.30
26035;DHT22;13809;48.632;11.576;2023-06-01T19:43:04;26.50;17.20
26035;DHT22;13809;48.632;11.576;2023-06-01T19:48:22;26.40;17.00
26035;DHT22;13809;48.632;11.576;2023-06-01T19:53:28;26.30;17.80
26035;DHT22;13809;48.632;11.576;2023-06-01T19:58:31;26.30;17.60
26035;DHT22;13809;48.632;11.576;2023-06-01T20:03:36;26.10;17.70
26035;DHT22;13809;48.632;11.576;2023-06-01T20:08:39;26.10;18.30
26035;DHT22;13809;48.632;11.576;2023-06-01T20:13:43;26.00;18.10
26035;DHT22;13809;48.632;11.576;2023-06-01T20:18:47;25.70;18.10
26035;DHT22;13809;48.632;11.576;2023-06-01T20:23:50;25.40;18.70
26035;DHT22;13809;48.632;11.576;2023-06-01T20:28:54;25.20;18.70
26035;DHT22;13809;48.632;11.576;2023-06-01T20:33:59;24.90;18.50
26035;DHT22;13809;48.632;11.576;2023-06-01T20:39:04;24.70;19.00
26035;DHT22;13809;48.632;11.576;2023-06-01T20:44:15;24.40;19.00
26035;DHT22;13809;48.632;11.576;2023-06-01T20:49:22;24.20;19.60
26035;DHT22;13809;48.632;11.576;2023-06-01T20:54:27;24.00;19.90
26035;DHT22;13809;48.632;11.576;2023-06-01T20:59:31;23.80;19.90
26035;DHT22;13809;48.632;11.576;2023-06-01T21:04:36;23.60;19.90
26035;DHT22;13809;48.632;11.576;2023-06-01T21:09:40;23.40;20.60
26035;DHT22;13809;48.632;11.576;2023-06-01T21:14:43;23.30;20.30
26035;DHT22;13809;48.632;11.576;2023-06-01T21:19:48;23.20;20.40
26035;DHT22;13809;48.632;11.576;2023-06-01T21:24:52;23.10;20.90
26035;DHT22;13809;48.632;11.576;2023-06-01T21:29:55;22.90;20.50
26035;DHT22;13809;48.632;11.576;2023-06-01T21:35:00;22.90;20.80
26035;DHT22;13809;48.632;11.576;2023-06-01T21:40:04;22.80;21.30
26035;DHT22;13809;48.632;11.576;2023-06-01T21:45:08;22.80;21.20
26035;DHT22;13809;48.632;11.576;2023-06-01T21:50:13;22.70;21.20
26035;DHT22;13809;48.632;11.576;2023-06-01T21:55:17;22.60;21.40
26035;DHT22;13809;48.632;11.576;2023-06-01T22:00:21;22.50;21.40
26035;DHT22;13809;48.632;11.576;2023-06-01T22:05:26;22.30;21.40
26035;DHT22;13809;48.632;11.576;2023-06-01T22:10:29;22.20;21.80
26035;DHT22;13809;48.632;11.576;2023-06-01T22:15:33;22.00;21.70
26035;DHT22;13809;48.632;11.576;2023-06-01T22:20:38;21.80;21.90
26035;DHT22;13809;48.632;11.576;2023-06-01T22:25:41;21.70;22.60
26035;DHT22;13809;48.632;11.576;2023-06-01T22:30:44;21.50;22.30
26035;DHT22;13809;48.632;11.576;2023-06-01T22:35:49;21.50;22.50
26035;DHT22;13809;48.632;11.576;2023-06-01T22:40:52;21.60;22.90
26035;DHT22;13809;48.632;11.576;2023-06-01T22:45:56;21.60;22.50
26035;DHT22;13809;48.632;11.576;2023-06-01T22:51:01;21.50;22.60
26035;DHT22;13809;48.632;11.576;2023-06-01T22:56:04;21.50;22.80
26035;DHT22;13809;48.632;11.576;2023-06-01T23:01:09;21.50;22.70
26035;DHT22;13809;48.632;11.576;2023-06-01T23:06:15;21.50;22.80
26035;DHT22;13809;48.632;11.576;2023-06-01T23:11:18;21.40;23.00
26035;DHT22;13809;48.632;11.576;2023-06-01T23:16:29;21.30;22.80
26035;DHT22;13809;48.632;11.576;2023-06-01T23:21:36;21.10;23.00
26035;DHT22;13809;48.632;11.576;2023-06-01T23:26:45;21.00;23.40
26035;DHT22;13809;48.632;11.576;2023-06-01T23:31:49;20.80;23.30
26035;DHT22;13809;48.632;11.576;2023-06-01T23:36:53;20.60;23.30
26035;DHT22;13809;48.632;11.576;2023-06-01T23:42:03;20.40;23.80
26035;DHT22;13809;48.632;11.576;2023-06-01T23:47:08;20.20;23.80
26035;DHT22;13809;48.632;11.576;2023-06-01T23:52:12;20.20;24.10
26035;DHT22;13809;48.632;11.576;2023-06-01T23:57:16;20.20;24.50
